Time;durP1;ratioP1;P1;durP2;ratioP2;P2;SDS_P1;SDS_P2;PMS_P1;PMS_P2;Temp;Humidity;BMP_temperature;BMP_pressure;BME280_temperature;BME280_humidity;BME280_pressure;Samples;Min_cycle;Max_cycle;Signal;HPM_P1;HPM_P2
2022/12/06 00:01:13;;;;;;;352.70;330.07;;;4.70;22.10;;;;;;5071692;28;20430;-70
2022/12/06 00:03:40;;;;;;;381.80;359.50;;;4.70;21.50;;;;;;5075480;28;20535;-69
2022/12/06 00:06:16;;;;;;;426.27;402.70;;;4.60;21.50;;;;;;5075723;28;20471;-69
2022/12/06 00:08:44;;;;;;;442.33;418.00;;;4.70;21.60;;;;;;5075732;28;20453;-69
2022/12/06 00:11:15;;;;;;;550.20;518.67;;;4.70;21.00;;;;;;5075542;28;20412;-69
2022/12/06 00:13:41;;;;;;;516.00;486.60;;;4.80;20.70;;;;;;5069392;28;20472;-69
2022/12/06 00:16:09;;;;;;;468.47;442.87;;;4.70;20.90;;;;;;5068359;28;20447;-69
2022/12/06 00:18:37;;;;;;;536.43;505.33;;;4.80;21.10;;;;;;5075879;28;20408;-69
2022/12/06 00:21:10;;;;;;;408.10;385.77;;;4.70;21.00;;;;;;5075170;28;20847;-69
2022/12/06 00:23:44;;;;;;;341.13;320.50;;;4.70;21.00;;;;;;5074951;28;20453;-69
2022/12/06 00:26:10;;;;;;;429.53;403.23;;;4.80;20.60;;;;;;5074622;28;20470;-69
2022/12/06 00:28:37;;;;;;;345.83;323.63;;;4.60;20.70;;;;;;5075118;28;20412;-70
2022/12/06 00:31:06;;;;;;;325.70;306.37;;;4.60;21.00;;;;;;5075303;28;20897;-69
2022/12/06 00:33:33;;;;;;;479.43;450.97;;;4.70;21.00;;;;;;5074993;28;20542;-70
2022/12/06 00:36:08;;;;;;;493.60;466.33;;;4.70;20.40;;;;;;5090489;28;20442;-69
2022/12/06 00:38:37;;;;;;;491.40;464.43;;;4.60;20.80;;;;;;5074909;28;20430;-70
2022/12/06 00:41:05;;;;;;;435.93;409.13;;;4.70;20.50;;;;;;5075521;28;20416;-70
2022/12/06 00:43:34;;;;;;;257.60;240.30;;;4.70;19.90;;;;;;5090898;28;20424;-70
2022/12/06 00:46:04;;;;;;;516.03;487.37;;;4.60;20.70;;;;;;5075301;28;20885;-70
2022/12/06 00:48:33;;;;;;;475.43;448.13;;;4.60;20.40;;;;;;5075135;28;20458;-70
2022/12/06 00:50:59;;;;;;;329.93;309.93;;;4.50;20.40;;;;;;5090270;28;20851;-70
2022/12/06 00:53:25;;;;;;;343.80;324.17;;;4.50;20.20;;;;;;5054069;28;20567;-70
2022/12/06 00:55:51;;;;;;;486.37;459.50;;;4.50;20.40;;;;;;5035893;28;20575;-70
2022/12/06 00:58:20;;;;;;;462.93;437.00;;;4.40;20.50;;;;;;5038292;28;20515;-70
2022/12/06 01:00:46;;;;;;;358.90;338.83;;;4.40;20.70;;;;;;5053854;28;20647;-70
2022/12/06 01:03:14;;;;;;;317.47;297.63;;;4.30;20.80;;;;;;5066063;28;20460;-70
2022/12/06 01:05:46;;;;;;;486.73;458.40;;;4.30;21.00;;;;;;5090112;28;20480;-70
2022/12/06 01:08:12;;;;;;;158.30;146.17;;;4.20;21.30;;;;;;5074390;28;20503;-70
2022/12/06 01:10:38;;;;;;;470.40;444.43;;;4.10;22.40;;;;;;5080299;28;20883;-70
2022/12/06 01:13:05;;;;;;;428.23;403.33;;;4.00;22.50;;;;;;5043237;28;20551;-70
2022/12/06 01:15:31;;;;;;;285.43;266.23;;;4.00;22.80;;;;;;5058990;28;20443;-69
2022/12/06 01:17:57;;;;;;;169.43;155.40;;;3.90;23.10;;;;;;5089894;28;20446;-70
2022/12/06 01:20:23;;;;;;;154.73;142.83;;;3.90;23.50;;;;;;5074474;28;20412;-70
2022/12/06 01:22:48;;;;;;;513.30;482.20;;;3.80;23.50;;;;;;5074080;28;20413;-70
2022/12/06 01:25:14;;;;;;;380.40;356.77;;;3.70;23.40;;;;;;5073773;28;20220;-69
2022/12/06 01:27:40;;;;;;;518.20;487.97;;;3.60;24.00;;;;;;5074168;28;20188;-70
2022/12/06 01:30:06;;;;;;;175.50;161.73;;;3.60;24.20;;;;;;5074348;28;20181;-73
2022/12/06 01:32:32;;;;;;;164.77;151.40;;;3.60;24.90;;;;;;5089242;28;20180;-71
2022/12/06 01:34:57;;;;;;;412.63;384.67;;;3.50;24.90;;;;;;5073902;28;20496;-71
2022/12/06 01:37:23;;;;;;;491.63;458.60;;;3.50;24.70;;;;;;5090509;28;20183;-71
2022/12/06 01:39:49;;;;;;;261.23;242.97;;;3.50;24.60;;;;;;5074559;28;20266;-71
2022/12/06 01:42:15;;;;;;;464.87;432.23;;;3.40;25.20;;;;;;5089211;28;20228;-71
2022/12/06 01:44:45;;;;;;;411.85;383.92;;;3.30;25.20;;;;;;5073338;28;20213;-71
2022/12/06 01:47:23;;;;;;;188.43;175.25;;;3.20;25.80;;;;;;5063377;28;20220;-71
2022/12/06 01:50:38;;;;;;;435.50;409.30;;;3.10;26.40;;;;;;5034460;28;20193;-71
2022/12/06 01:53:09;;;;;;;179.43;165.55;;;3.00;26.60;;;;;;5034163;28;20462;-71
2022/12/06 01:55:37;;;;;;;249.15;231.73;;;2.90;27.10;;;;;;5036181;28;20569;-71
2022/12/06 01:58:11;;;;;;;127.93;116.15;;;2.80;27.00;;;;;;5053696;28;20260;-71
2022/12/06 02:00:36;;;;;;;129.65;118.32;;;2.70;27.50;;;;;;5053482;28;20511;-71
2022/12/06 02:03:07;;;;;;;405.03;381.00;;;2.60;28.00;;;;;;5053139;28;20180;-71
2022/12/06 02:05:34;;;;;;;415.73;391.60;;;2.60;28.10;;;;;;5053229;28;20197;-71
2022/12/06 02:08:00;;;;;;;472.33;443.75;;;2.50;28.40;;;;;;5056840;28;20268;-71
2022/12/06 02:10:26;;;;;;;306.00;287.17;;;2.50;28.30;;;;;;5085848;28;20179;-71
2022/12/06 02:12:55;;;;;;;319.38;295.63;;;2.40;28.20;;;;;;5053456;28;20739;-71
2022/12/06 02:15:29;;;;;;;221.82;205.77;;;2.40;28.90;;;;;;5052957;28;20233;-72
2022/12/06 02:18:14;;;;;;;224.82;208.75;;;2.30;29.10;;;;;;5053415;28;20632;-71
2022/12/06 02:20:54;;;;;;;202.98;188.32;;;2.20;29.50;;;;;;5053337;28;20184;-71
2022/12/06 02:23:38;;;;;;;229.20;213.63;;;2.10;29.60;;;;;;5052939;28;20184;-71
2022/12/06 02:26:23;;;;;;;166.07;152.63;;;2.00;30.50;;;;;;5051607;28;20325;-71
2022/12/06 02:29:21;;;;;;;138.73;126.65;;;2.00;30.50;;;;;;5051845;28;20190;-71
2022/12/06 02:32:02;;;;;;;187.57;173.27;;;2.00;30.50;;;;;;5052762;28;20258;-71
2022/12/06 02:34:47;;;;;;;175.70;161.60;;;2.00;30.10;;;;;;5059850;28;20219;-71
2022/12/06 02:37:37;;;;;;;164.02;150.73;;;2.10;30.60;;;;;;5073090;28;20168;-71
2022/12/06 02:40:10;;;;;;;171.75;158.35;;;2.10;30.10;;;;;;5073110;28;20256;-71
2022/12/06 02:42:48;;;;;;;172.55;158.70;;;2.30;30.00;;;;;;5088473;28;20172;-72
2022/12/06 02:45:18;;;;;;;120.32;109.28;;;2.30;29.50;;;;;;5071482;28;20285;-71
2022/12/06 02:47:46;;;;;;;370.30;344.30;;;2.50;28.30;;;;;;5062806;28;20187;-71
2022/12/06 02:50:27;;;;;;;297.85;277.88;;;2.50;27.70;;;;;;5073223;28;20171;-71
2022/12/06 02:52:55;;;;;;;100.68;90.38;;;2.60;26.90;;;;;;5072888;28;20199;-71
2022/12/06 02:55:22;;;;;;;172.15;158.02;;;2.70;26.70;;;;;;5073036;28;20227;-71
2022/12/06 02:57:52;;;;;;;240.13;222.85;;;2.70;26.80;;;;;;5071030;28;20649;-71
2022/12/06 03:00:30;;;;;;;101.53;90.88;;;2.70;26.10;;;;;;5072842;28;20504;-71
2022/12/06 03:03:27;;;;;;;170.95;158.55;;;2.80;26.30;;;;;;5072522;28;20188;-71
2022/12/06 03:06:01;;;;;;;194.68;179.85;;;2.80;26.30;;;;;;5071209;28;20764;-72
2022/12/06 03:08:33;;;;;;;388.48;363.67;;;2.80;25.70;;;;;;5072701;28;20649;-72
2022/12/06 03:11:01;;;;;;;330.73;308.38;;;2.80;25.50;;;;;;5072577;28;20188;-72
2022/12/06 03:13:36;;;;;;;112.32;101.60;;;2.90;24.80;;;;;;5072045;28;20227;-72
2022/12/06 03:16:13;;;;;;;255.02;237.82;;;2.90;24.70;;;;;;5072379;28;20188;-72
2022/12/06 03:18:50;;;;;;;177.43;163.38;;;2.90;24.20;;;;;;5068213;28;20747;-71
2022/12/06 03:21:40;;;;;;;235.23;220.50;;;3.00;23.90;;;;;;5052155;28;20184;-72
2022/12/06 03:24:10;;;;;;;282.58;264.15;;;2.90;24.40;;;;;;5051915;28;20692;-72
2022/12/06 03:26:41;;;;;;;290.98;270.88;;;2.90;23.90;;;;;;5052333;28;20645;-70
2022/12/06 03:29:09;;;;;;;301.60;282.30;;;2.90;24.30;;;;;;5052137;28;20593;-72
2022/12/06 03:31:38;;;;;;;94.57;82.28;;;3.00;23.60;;;;;;5050020;28;20238;-71
2022/12/06 03:34:27;;;;;;;91.30;77.47;;;2.90;22.90;;;;;;5050397;28;20228;-72
2022/12/06 03:36:53;;;;;;;148.48;136.07;;;2.90;23.00;;;;;;5064211;28;20228;-72
2022/12/06 03:39:30;;;;;;;137.93;125.28;;;3.00;23.00;;;;;;5072141;28;20168;-72
2022/12/06 03:41:58;;;;;;;176.38;162.50;;;2.90;23.10;;;;;;5087310;28;20174;-71
2022/12/06 03:44:28;;;;;;;257.58;239.02;;;2.90;23.20;;;;;;5071977;28;20697;-71
2022/12/06 03:47:17;;;;;;;213.02;197.63;;;2.80;23.20;;;;;;5069823;28;20199;-71
2022/12/06 03:49:52;;;;;;;159.07;146.48;;;2.70;23.70;;;;;;5050846;28;20176;-70
2022/12/06 03:52:24;;;;;;;146.27;134.07;;;2.50;24.00;;;;;;5051961;28;20174;-70
2022/12/06 03:54:50;;;;;;;120.10;109.32;;;2.50;24.10;;;;;;5052207;28;20215;-70
2022/12/06 03:57:18;;;;;;;301.90;284.33;;;2.40;24.80;;;;;;5052034;28;20651;-70
2022/12/06 03:59:45;;;;;;;211.68;197.23;;;2.30;24.90;;;;;;5050539;28;20427;-70
2022/12/06 04:02:11;;;;;;;198.80;183.68;;;2.30;25.40;;;;;;5050206;28;20655;-71
2022/12/06 04:04:36;;;;;;;465.27;436.80;;;2.30;25.60;;;;;;5050371;28;20235;-70
2022/12/06 04:07:02;;;;;;;349.97;326.83;;;2.20;25.40;;;;;;5051918;28;20212;-71
2022/12/06 04:14:56;;;;;;;133.20;121.35;;;2.20;25.80;;;;;;5030973;28;20224;-70
2022/12/06 04:20:06;;;;;;;230.18;213.23;;;2.30;26.40;;;;;;5031866;28;20674;-70
2022/12/06 04:25:16;;;;;;;208.90;194.43;;;2.10;26.50;;;;;;5051999;28;20237;-71
2022/12/06 04:38:41;;;;;;;209.85;194.02;;;2.20;25.60;;;;;;5053555;28;20671;-70
2022/12/06 04:41:09;;;;;;;245.40;228.00;;;2.20;25.60;;;;;;5050723;28;20185;-71
2022/12/06 04:43:40;;;;;;;159.25;146.13;;;2.10;26.20;;;;;;5050297;28;20958;-70
2022/12/06 04:46:07;;;;;;;128.98;117.50;;;2.10;26.50;;;;;;5052110;28;20801;-71
2022/12/06 04:48:34;;;;;;;83.22;57.10;;;2.10;26.50;;;;;;5052832;28;20558;-70
2022/12/06 04:51:00;;;;;;;150.18;138.05;;;2.10;26.50;;;;;;5055301;28;20172;-70
2022/12/06 04:53:25;;;;;;;116.50;105.67;;;2.20;27.10;;;;;;5054994;28;20565;-71
2022/12/06 04:55:51;;;;;;;126.57;115.40;;;2.30;26.70;;;;;;5055235;28;20611;-71
2022/12/06 04:58:17;;;;;;;125.27;113.97;;;2.40;26.70;;;;;;5059442;28;20177;-71
2022/12/06 05:00:43;;;;;;;221.83;205.93;;;2.50;26.00;;;;;;5074835;28;20466;-71
2022/12/06 05:03:13;;;;;;;132.63;120.60;;;2.50;25.80;;;;;;5074621;28;20442;-70
2022/12/06 05:05:39;;;;;;;256.10;237.10;;;2.50;24.90;;;;;;5056572;28;20856;-70
2022/12/06 05:08:05;;;;;;;110.18;99.40;;;2.50;24.70;;;;;;5052462;28;20258;-70
2022/12/06 05:10:31;;;;;;;83.20;64.72;;;2.50;24.60;;;;;;5054525;28;20179;-70
2022/12/06 05:12:57;;;;;;;146.80;134.55;;;2.60;24.50;;;;;;5054135;28;20181;-71
2022/12/06 05:15:23;;;;;;;92.03;81.75;;;2.60;24.60;;;;;;5054352;28;20201;-71
2022/12/06 05:17:49;;;;;;;175.90;162.20;;;2.70;24.40;;;;;;5058831;28;20223;-71
2022/12/06 05:20:15;;;;;;;114.23;103.60;;;2.70;24.30;;;;;;5074588;28;20223;-71
2022/12/06 05:22:43;;;;;;;189.43;173.97;;;2.70;24.30;;;;;;5059796;28;20185;-71
2022/12/06 05:25:09;;;;;;;161.23;148.20;;;2.60;24.20;;;;;;5056562;28;20322;-72
2022/12/06 05:27:35;;;;;;;308.63;287.73;;;2.60;24.70;;;;;;5057875;28;20284;-71
2022/12/06 05:30:00;;;;;;;203.20;188.33;;;2.60;24.30;;;;;;5056434;28;20179;-72
2022/12/06 05:32:26;;;;;;;191.73;177.40;;;2.60;24.30;;;;;;5056021;28;20760;-72
2022/12/06 05:34:51;;;;;;;176.03;161.07;;;2.60;24.40;;;;;;5055022;28;20214;-72
2022/12/06 05:37:17;;;;;;;233.23;216.67;;;2.60;24.30;;;;;;5053798;28;20232;-71
2022/12/06 05:39:43;;;;;;;162.27;149.47;;;2.60;23.90;;;;;;5049033;28;20190;-71
2022/12/06 05:42:08;;;;;;;326.47;305.33;;;2.70;23.90;;;;;;5034453;28;20186;-71
2022/12/06 05:44:34;;;;;;;275.07;254.50;;;2.70;23.70;;;;;;5035461;28;20292;-71
2022/12/06 05:46:59;;;;;;;154.17;141.83;;;2.80;23.30;;;;;;5034916;28;20190;-72
2022/12/06 05:49:25;;;;;;;135.40;123.43;;;2.80;23.70;;;;;;5038934;28;20558;-72
2022/12/06 05:51:53;;;;;;;140.93;129.10;;;2.90;22.90;;;;;;5054447;28;20182;-71
2022/12/06 05:54:19;;;;;;;194.73;179.93;;;2.80;22.90;;;;;;5053713;28;20561;-72
2022/12/06 05:56:49;;;;;;;171.43;159.13;;;2.80;23.10;;;;;;5054130;28;20200;-71
2022/12/06 05:59:14;;;;;;;264.85;248.18;;;2.90;23.30;;;;;;5036236;28;20216;-70
2022/12/06 06:01:43;;;;;;;213.70;200.03;;;2.90;23.10;;;;;;5038730;28;20644;-71
2022/12/06 06:04:09;;;;;;;209.50;194.63;;;3.00;23.00;;;;;;5059020;28;20243;-71
2022/12/06 06:06:35;;;;;;;268.37;251.17;;;3.10;23.10;;;;;;5060142;28;20184;-69
2022/12/06 06:09:00;;;;;;;178.53;165.50;;;3.10;22.40;;;;;;5059353;28;20676;-70
2022/12/06 06:11:26;;;;;;;230.33;215.27;;;3.20;22.10;;;;;;5058068;28;20427;-68
2022/12/06 06:13:53;;;;;;;162.77;150.03;;;3.30;22.20;;;;;;5056736;28;20295;-71
2022/12/06 06:16:19;;;;;;;225.15;210.43;;;3.20;22.10;;;;;;5058146;28;20181;-70
2022/12/06 06:18:45;;;;;;;312.50;294.83;;;3.20;22.70;;;;;;5077493;28;20186;-70
2022/12/06 06:21:11;;;;;;;247.93;231.13;;;3.30;22.50;;;;;;5078710;28;20176;-72
2022/12/06 06:23:37;;;;;;;287.90;271.03;;;3.30;22.50;;;;;;5076580;28;20268;-70
2022/12/06 06:26:10;;;;;;;475.30;447.53;;;3.30;22.50;;;;;;5076147;28;20587;-71
2022/12/06 06:28:37;;;;;;;294.20;277.73;;;3.40;22.50;;;;;;5077297;28;20412;-71
2022/12/06 06:31:06;;;;;;;509.88;480.13;;;3.40;22.60;;;;;;5078055;28;20685;-71
2022/12/06 06:33:32;;;;;;;322.83;304.63;;;3.40;21.90;;;;;;5094094;28;20200;-73
2022/12/06 06:35:59;;;;;;;332.77;313.10;;;3.40;22.60;;;;;;5038588;28;20216;-70
2022/12/06 06:38:24;;;;;;;302.30;284.58;;;3.40;22.00;;;;;;5044406;28;20181;-71
2022/12/06 06:40:50;;;;;;;254.00;235.90;;;3.30;22.10;;;;;;5070983;28;20614;-71
2022/12/06 06:43:22;;;;;;;405.33;380.53;;;3.30;21.90;;;;;;5074005;28;20182;-71
2022/12/06 06:45:59;;;;;;;485.97;456.83;;;3.20;22.20;;;;;;5074734;28;20200;-71
2022/12/06 06:48:26;;;;;;;238.38;222.40;;;3.30;22.50;;;;;;5076064;28;20419;-71
2022/12/06 06:50:52;;;;;;;173.25;159.73;;;3.30;22.40;;;;;;5070890;28;20671;-70
2022/12/06 06:53:18;;;;;;;272.20;255.00;;;3.40;22.40;;;;;;5044222;28;20245;-70
2022/12/06 06:55:45;;;;;;;193.82;178.73;;;3.40;22.30;;;;;;5053150;28;20203;-71
2022/12/06 06:58:13;;;;;;;219.18;203.52;;;3.40;22.50;;;;;;5057470;28;20283;-69
2022/12/06 07:00:39;;;;;;;321.05;303.35;;;3.40;22.60;;;;;;5034105;28;20177;-70
2022/12/06 07:03:05;;;;;;;473.00;441.90;;;3.50;22.40;;;;;;5032449;28;20282;-72
2022/12/06 07:05:30;;;;;;;485.60;458.17;;;3.50;21.80;;;;;;5032577;28;20291;-71
2022/12/06 07:07:56;;;;;;;149.07;137.23;;;3.50;21.70;;;;;;5034242;28;20186;-70
2022/12/06 07:10:26;;;;;;;326.67;308.17;;;3.50;22.10;;;;;;5036376;28;20212;-70
2022/12/06 07:12:53;;;;;;;441.08;416.20;;;3.50;22.40;;;;;;5033354;28;20324;-68
2022/12/06 07:15:19;;;;;;;328.15;310.08;;;3.60;22.20;;;;;;5043759;28;20714;-73
2022/12/06 07:17:45;;;;;;;360.50;340.30;;;3.60;21.70;;;;;;5053032;28;20164;-71
2022/12/06 07:20:10;;;;;;;410.87;385.03;;;3.60;21.20;;;;;;5052468;28;20406;-71
2022/12/06 07:22:36;;;;;;;297.17;277.97;;;3.60;20.70;;;;;;5051758;28;20253;-71
2022/12/06 07:25:02;;;;;;;343.30;321.23;;;3.60;20.40;;;;;;5051872;28;20507;-72
2022/12/06 07:27:27;;;;;;;330.47;311.30;;;3.60;20.20;;;;;;5051806;28;20192;-71
2022/12/06 07:29:53;;;;;;;297.63;280.50;;;;;;;;;;5051921;28;20183;-72
2022/12/06 07:32:19;;;;;;;308.47;291.63;;;3.70;20.00;;;;;;5053059;28;20181;-71
2022/12/06 07:34:44;;;;;;;190.50;176.47;;;3.70;20.30;;;;;;5066611;28;20512;-71
2022/12/06 07:37:10;;;;;;;460.63;432.73;;;3.70;20.10;;;;;;5061239;28;20178;-71
2022/12/06 07:39:35;;;;;;;215.10;199.83;;;3.70;20.40;;;;;;5053179;28;20205;-72
2022/12/06 07:45:00;;;;;;;258.52;243.48;;;3.60;21.10;;;;;;5072634;28;20226;-70
2022/12/06 07:47:31;;;;;;;165.82;153.30;;;3.70;20.70;;;;;;5060231;28;20603;-70
2022/12/06 07:49:56;;;;;;;288.53;271.47;;;3.70;20.90;;;;;;5045630;28;20221;-70
2022/12/06 07:52:22;;;;;;;287.90;270.87;;;3.80;20.40;;;;;;5050630;28;20416;-70
2022/12/06 07:54:48;;;;;;;317.17;297.37;;;3.80;20.30;;;;;;5052033;28;20552;-70
2022/12/06 07:57:13;;;;;;;359.60;336.70;;;3.70;21.20;;;;;;5051765;28;20208;-70
2022/12/06 07:59:39;;;;;;;345.43;327.30;;;3.60;21.70;;;;;;5051840;28;20174;-71
2022/12/06 08:02:05;;;;;;;314.43;295.60;;;3.70;21.30;;;;;;5051602;28;20441;-71
2022/12/06 08:04:30;;;;;;;285.40;266.20;;;3.80;21.10;;;;;;5052144;28;20537;-70
2022/12/06 08:06:56;;;;;;;220.17;205.77;;;3.80;21.20;;;;;;5052155;28;20184;-71
2022/12/06 08:09:22;;;;;;;364.77;334.75;;;3.70;21.30;;;;;;5052469;28;20603;-71
2022/12/06 08:11:48;;;;;;;335.83;316.10;;;3.80;20.80;;;;;;5051502;28;20217;-70
2022/12/06 08:14:14;;;;;;;364.20;341.87;;;3.90;20.70;;;;;;5051644;28;20468;-71
2022/12/06 08:16:40;;;;;;;253.90;237.73;;;4.00;20.20;;;;;;5051891;28;20175;-70
2022/12/06 08:19:06;;;;;;;197.57;183.47;;;4.10;20.40;;;;;;5052299;28;20252;-70
2022/12/06 08:21:32;;;;;;;451.33;426.93;;;4.00;20.20;;;;;;5052203;28;20498;-70
2022/12/06 08:23:58;;;;;;;320.27;302.90;;;4.10;20.30;;;;;;5055001;28;20425;-70
2022/12/06 08:26:23;;;;;;;393.67;369.37;;;4.10;19.60;;;;;;5054630;28;20433;-71
2022/12/06 08:28:50;;;;;;;339.70;320.90;;;4.10;19.60;;;;;;5054419;28;20554;-71
2022/12/06 08:31:19;;;;;;;303.15;285.13;;;4.00;19.60;;;;;;5055720;28;20176;-70
2022/12/06 08:33:45;;;;;;;441.17;417.30;;;4.10;19.60;;;;;;5055503;28;20296;-71
2022/12/06 08:36:14;;;;;;;409.30;385.83;;;4.10;19.60;;;;;;5055425;28;20436;-71
2022/12/06 08:38:40;;;;;;;388.97;367.47;;;4.20;19.30;;;;;;5055524;28;20423;-71
2022/12/06 08:43:54;;;;;;;409.73;377.73;;;4.30;18.90;;;;;;5045504;28;20205;-70
2022/12/06 08:46:20;;;;;;;373.37;339.83;;;4.40;19.30;;;;;;5055766;28;20198;-69
2022/12/06 08:48:46;;;;;;;437.33;392.27;;;4.40;19.00;;;;;;5055731;28;20424;-69
2022/12/06 08:51:11;;;;;;;351.83;330.70;;;4.40;19.50;;;;;;5055299;28;20907;-69
2022/12/06 08:53:37;;;;;;;340.27;313.13;;;4.50;19.00;;;;;;5055289;28;20213;-69
2022/12/06 08:56:03;;;;;;;329.53;206.03;;;4.50;18.50;;;;;;5055244;28;20193;-69
2022/12/06 08:58:29;;;;;;;595.53;386.93;;;4.40;18.40;;;;;;5055295;28;20182;-69
2022/12/06 09:00:54;;;;;;;616.10;448.77;;;4.50;18.80;;;;;;5055162;28;20416;-70
2022/12/06 09:03:20;;;;;;;268.67;235.00;;;4.50;18.80;;;;;;5053529;28;20818;-69
2022/12/06 09:05:45;;;;;;;308.90;287.03;;;4.60;18.40;;;;;;5055341;28;20588;-69
2022/12/06 09:08:11;;;;;;;271.43;249.37;;;4.60;18.60;;;;;;5055203;28;20247;-69
2022/12/06 09:10:37;;;;;;;188.57;168.90;;;4.50;18.60;;;;;;5055183;28;20174;-70
2022/12/06 09:13:03;;;;;;;290.07;270.03;;;4.50;19.20;;;;;;5055637;28;20412;-70
2022/12/06 09:15:28;;;;;;;189.00;174.30;;;4.70;18.70;;;;;;5054985;28;20218;-70
2022/12/06 09:17:54;;;;;;;166.67;152.03;;;4.60;18.30;;;;;;5054943;28;20776;-70
2022/12/06 09:20:19;;;;;;;359.07;337.97;;;4.60;18.30;;;;;;5053777;28;20671;-69
2022/12/06 09:22:45;;;;;;;276.87;259.43;;;4.50;18.90;;;;;;5054822;28;20547;-70
2022/12/06 09:25:11;;;;;;;268.13;250.00;;;4.60;18.80;;;;;;5053655;28;20222;-70
2022/12/06 09:27:37;;;;;;;364.70;343.63;;;4.60;18.70;;;;;;5055115;28;20179;-70
2022/12/06 09:30:04;;;;;;;231.00;214.40;;;4.60;18.80;;;;;;5055451;28;20178;-70
2022/12/06 09:32:29;;;;;;;278.40;254.47;;;4.60;19.00;;;;;;5055168;28;20427;-71
2022/12/06 09:34:55;;;;;;;449.50;306.37;;;4.50;19.10;;;;;;5054069;28;20468;-70
2022/12/06 09:37:21;;;;;;;170.17;155.37;;;4.60;18.90;;;;;;5055491;28;20175;-71
2022/12/06 09:39:50;;;;;;;289.83;268.40;;;4.70;18.60;;;;;;5054884;28;20658;-70
2022/12/06 09:42:49;;;;;;;350.87;328.43;;;4.80;18.60;;;;;;5054465;28;21131;-71
2022/12/06 09:45:21;;;;;;;307.45;288.98;;;4.80;18.20;;;;;;5054591;28;20429;-69
2022/12/06 09:47:49;;;;;;;288.43;269.33;;;5.00;18.50;;;;;;5054738;28;20549;-70
2022/12/06 09:50:53;;;;;;;373.87;352.27;;;5.10;18.10;;;;;;5054391;28;20405;-70
2022/12/06 09:53:24;;;;;;;313.60;291.13;;;5.20;17.50;;;;;;5016840;28;20882;-70
2022/12/06 09:56:19;;;;;;;328.90;303.67;;;5.20;16.90;;;;;;5054253;28;20514;-71
2022/12/06 09:59:04;;;;;;;286.57;267.73;;;5.30;17.20;;;;;;5054608;28;20412;-70
2022/12/06 10:01:54;;;;;;;320.80;298.97;;;5.40;16.40;;;;;;5054307;28;20926;-71
2022/12/06 10:04:38;;;;;;;330.97;311.00;;;5.50;17.00;;;;;;5054223;28;20820;-71
2022/12/06 10:07:31;;;;;;;490.80;463.10;;;5.70;16.40;;;;;;5054295;28;20413;-70
2022/12/06 10:10:35;;;;;;;478.33;450.80;;;5.90;16.20;;;;;;5054095;28;20413;-71
2022/12/06 10:13:21;;;;;;;393.73;371.70;;;6.00;15.00;;;;;;5054364;28;20917;-70
2022/12/06 10:16:34;;;;;;;374.13;351.63;;;6.10;15.10;;;;;;5054137;28;20461;-70
2022/12/06 10:19:39;;;;;;;398.47;371.93;;;6.00;14.40;;;;;;5052678;28;20401;-70
2022/12/06 10:22:21;;;;;;;446.77;418.53;;;6.00;14.70;;;;;;5020104;28;20409;-71
2022/12/06 10:25:17;;;;;;;416.00;391.50;;;6.10;14.70;;;;;;5053515;28;20460;-71
2022/12/06 10:28:10;;;;;;;384.63;359.97;;;6.10;14.30;;;;;;5053977;28;20783;-70
2022/12/06 10:30:49;;;;;;;333.47;313.27;;;5.80;14.80;;;;;;5053361;28;20432;-71
2022/12/06 10:33:29;;;;;;;367.63;344.63;;;5.90;14.70;;;;;;5053108;28;20452;-70
2022/12/06 10:36:04;;;;;;;397.53;372.53;;;5.70;16.00;;;;;;5053246;28;20421;-71
2022/12/06 10:38:42;;;;;;;310.17;290.67;;;5.80;14.70;;;;;;5053673;28;20416;-70
2022/12/06 10:41:12;;;;;;;267.53;249.50;;;5.70;15.40;;;;;;5053463;28;20409;-70
2022/12/06 10:43:47;;;;;;;376.90;352.60;;;5.70;15.50;;;;;;5053060;28;20787;-69
2022/12/06 10:49:29;;;;;;;367.80;344.53;;;5.80;15.30;;;;;;5053407;28;20404;-70
2022/12/06 10:52:15;;;;;;;408.87;383.97;;;5.70;15.60;;;;;;5052701;28;20410;-71
2022/12/06 10:54:42;;;;;;;357.80;335.20;;;5.90;15.20;;;;;;5053331;28;20490;-70
2022/12/06 10:57:24;;;;;;;337.93;316.40;;;6.00;15.40;;;;;;5053167;28;20417;-70
2022/12/06 10:59:55;;;;;;;332.70;311.77;;;6.20;15.40;;;;;;5053744;28;20408;-71
2022/12/06 11:02:33;;;;;;;319.80;298.70;;;6.00;14.80;;;;;;5052625;28;20401;-70
2022/12/06 11:05:03;;;;;;;390.40;365.40;;;6.20;15.00;;;;;;5052138;28;20520;-70
2022/12/06 11:07:51;;;;;;;340.27;318.57;;;6.10;15.20;;;;;;5052185;28;20443;-69
2022/12/06 11:10:22;;;;;;;339.90;318.40;;;6.40;15.30;;;;;;5050751;28;20939;-69
2022/12/06 11:12:55;;;;;;;367.17;344.67;;;6.60;13.80;;;;;;5051923;28;20418;-69
2022/12/06 11:15:31;;;;;;;273.83;255.80;;;6.40;13.70;;;;;;5051946;28;20974;-68
2022/12/06 11:18:15;;;;;;;380.27;358.27;;;6.40;14.50;;;;;;5051945;28;20534;-69
2022/12/06 11:20:48;;;;;;;315.13;294.63;;;6.40;14.50;;;;;;5051980;28;20428;-69
2022/12/06 11:23:20;;;;;;;251.03;234.77;;;6.30;14.30;;;;;;5051678;28;20416;-69
2022/12/06 11:26:21;;;;;;;335.83;314.30;;;6.20;14.70;;;;;;5052334;28;20458;-69
2022/12/06 11:28:54;;;;;;;334.43;313.27;;;6.40;15.30;;;;;;5052151;28;20405;-69
2022/12/06 11:31:35;;;;;;;269.33;251.73;;;6.60;14.40;;;;;;5050597;28;20427;-69
2022/12/06 11:34:02;;;;;;;272.10;255.60;;;6.80;14.30;;;;;;5051903;28;20830;-69
2022/12/06 11:36:29;;;;;;;287.53;269.07;;;7.10;13.70;;;;;;5052069;28;20422;-69
2022/12/06 11:38:54;;;;;;;419.60;393.37;;;7.30;13.60;;;;;;5051915;28;20419;-70
2022/12/06 11:41:26;;;;;;;252.63;235.03;;;7.20;13.00;;;;;;5051693;28;20413;-69
2022/12/06 11:43:54;;;;;;;425.40;398.63;;;6.90;13.50;;;;;;5051635;28;20187;-69
2022/12/06 11:46:21;;;;;;;225.63;209.60;;;6.90;14.00;;;;;;5051601;28;20906;-69
2022/12/06 11:48:47;;;;;;;280.57;261.00;;;6.90;13.60;;;;;;5051708;28;20496;-69
2022/12/06 11:51:24;;;;;;;279.23;260.63;;;7.30;13.50;;;;;;5050389;28;20842;-69
2022/12/06 11:54:06;;;;;;;445.47;417.90;;;7.20;13.00;;;;;;5051378;28;20462;-69
2022/12/06 11:56:36;;;;;;;385.70;361.83;;;7.30;12.60;;;;;;5051884;28;20418;-69
2022/12/06 11:59:23;;;;;;;401.23;374.83;;;7.10;12.90;;;;;;5055119;28;20444;-69
2022/12/06 12:01:51;;;;;;;340.40;319.77;;;7.30;13.10;;;;;;5055320;28;20422;-69
2022/12/06 12:04:41;;;;;;;445.73;418.00;;;7.10;12.60;;;;;;5055468;28;20496;-69
2022/12/06 12:07:17;;;;;;;407.00;382.57;;;7.10;12.90;;;;;;5055620;28;20498;-69
2022/12/06 12:10:21;;;;;;;380.83;357.37;;;7.00;12.90;;;;;;5055492;28;20481;-69
2022/12/06 12:15:33;;;;;;;305.17;285.17;;;6.70;12.80;;;;;;5055466;28;20425;-69
2022/12/06 12:18:00;;;;;;;344.50;323.63;;;6.60;13.90;;;;;;5055363;28;20403;-69
2022/12/06 12:20:30;;;;;;;346.47;325.57;;;6.60;13.40;;;;;;5055057;28;20507;-69
2022/12/06 12:23:06;;;;;;;373.53;351.27;;;6.50;13.80;;;;;;5054939;28;20408;-69
2022/12/06 12:25:35;;;;;;;301.90;281.90;;;6.40;14.00;;;;;;5054986;28;20449;-69
2022/12/06 12:28:02;;;;;;;349.40;327.00;;;6.30;14.60;;;;;;5055367;28;20467;-69
2022/12/06 12:30:38;;;;;;;144.93;132.30;;;6.30;14.30;;;;;;5055462;28;20402;-69
2022/12/06 12:33:08;;;;;;;404.40;379.03;;;6.30;15.00;;;;;;5055234;28;20445;-70
2022/12/06 12:35:49;;;;;;;450.40;422.80;;;6.40;14.90;;;;;;5055164;28;20491;-70
2022/12/06 12:38:20;;;;;;;384.50;360.07;;;6.20;14.80;;;;;;5055723;28;20892;-71
2022/12/06 12:41:00;;;;;;;373.90;349.00;;;6.20;14.60;;;;;;5055787;28;20415;-71
2022/12/06 12:43:30;;;;;;;296.13;277.27;;;6.30;15.30;;;;;;5055435;28;20422;-71
2022/12/06 12:46:05;;;;;;;347.63;326.13;;;6.00;15.60;;;;;;5055968;28;20429;-70
2022/12/06 12:48:31;;;;;;;351.00;328.30;;;6.00;15.70;;;;;;5055493;28;20412;-70
2022/12/06 12:51:00;;;;;;;431.00;404.70;;;5.90;16.50;;;;;;5055516;28;20827;-70
2022/12/06 12:53:41;;;;;;;325.00;305.47;;;5.80;16.70;;;;;;5054738;28;20449;-69
2022/12/06 12:56:09;;;;;;;220.23;205.63;;;5.80;17.50;;;;;;5055331;28;20532;-70
2022/12/06 12:58:34;;;;;;;267.73;250.40;;;5.90;16.50;;;;;;5054890;28;20410;-69
2022/12/06 13:01:06;;;;;;;493.37;464.70;;;5.90;16.90;;;;;;5055007;28;20788;-70
2022/12/06 13:03:33;;;;;;;377.37;355.33;;;6.00;16.60;;;;;;5054711;28;20179;-70
2022/12/06 13:05:58;;;;;;;396.40;368.50;;;6.10;16.60;;;;;;5054971;28;20437;-69
2022/12/06 13:08:33;;;;;;;367.40;343.97;;;6.20;16.70;;;;;;5054143;28;20997;-69
2022/12/06 13:11:02;;;;;;;387.37;363.93;;;6.00;16.50;;;;;;5053950;28;20589;-69